Time;durP1;ratioP1;P1;durP2;ratioP2;P2;SDS_P1;SDS_P2;PMS_P1;PMS_P2;Temp;Humidity;BMP_temperature;BMP_pressure;BME280_temperature;BME280_humidity;BME280_pressure;Samples;Min_cycle;Max_cycle;Signal;HPM_P1;HPM_P2
2024/01/01 00:00:17;;;;;;;2.70;1.10;;;4.70;99.90;;;;;;4934281;29;20667;-62
2024/01/01 00:02:43;;;;;;;1.50;1.50;;;4.70;99.90;;;;;;4934264;29;20414;-62
2024/01/01 00:05:09;;;;;;;1.80;1.70;;;4.70;99.90;;;;;;4934297;29;20732;-62
2024/01/01 00:07:35;;;;;;;2.30;2.10;;;4.80;99.90;;;;;;4934395;29;20265;-63
2024/01/01 00:10:00;;;;;;;2.23;0.60;;;4.90;99.90;;;;;;4934162;29;20862;-63
2024/01/01 00:12:27;;;;;;;0.50;0.50;;;4.90;99.90;;;;;;4934235;29;20505;-63
2024/01/01 00:14:53;;;;;;;1.85;1.75;;;4.90;99.90;;;;;;4934356;29;20189;-62
2024/01/01 00:17:19;;;;;;;0.70;0.70;;;4.90;99.90;;;;;;4934200;29;20208;-63
2024/01/01 00:19:44;;;;;;;5.70;2.10;;;4.80;99.90;;;;;;4933995;29;20179;-63
2024/01/01 00:22:10;;;;;;;4.23;2.00;;;4.80;99.90;;;;;;4934047;29;20178;-63
2024/01/01 00:24:35;;;;;;;1.17;1.17;;;4.80;99.90;;;;;;4934278;29;20210;-63
2024/01/01 00:27:01;;;;;;;0.60;0.60;;;4.80;99.90;;;;;;4934116;29;20257;-63
2024/01/01 00:29:27;;;;;;;0.60;0.60;;;4.80;99.90;;;;;;4934060;29;20214;-63
2024/01/01 00:31:53;;;;;;;1.27;1.17;;;4.50;99.90;;;;;;4933799;29;20217;-63
2024/01/01 00:34:19;;;;;;;2.38;1.73;;;4.60;99.90;;;;;;4933987;29;20177;-63
2024/01/01 00:36:44;;;;;;;1.90;1.70;;;4.50;99.90;;;;;;4934054;29;20203;-62
2024/01/01 00:39:10;;;;;;;0.77;0.77;;;4.50;99.90;;;;;;4934048;29;20649;-63
2024/01/01 00:41:39;;;;;;;8.30;2.90;;;4.60;99.90;;;;;;4933772;29;20179;-63
2024/01/01 00:44:05;;;;;;;1.60;1.30;;;4.60;99.90;;;;;;4933970;29;20178;-63
2024/01/01 00:46:30;;;;;;;1.85;1.75;;;4.60;99.90;;;;;;4933989;29;20202;-63
2024/01/01 00:48:56;;;;;;;6.70;3.30;;;4.50;99.90;;;;;;4933888;29;20577;-63
2024/01/01 00:51:22;;;;;;;5.47;2.03;;;4.50;99.90;;;;;;4933738;29;20179;-62
2024/01/01 00:53:47;;;;;;;3.20;2.47;;;4.50;99.90;;;;;;4936443;29;20570;-63
2024/01/01 00:56:13;;;;;;;1.73;1.63;;;4.40;99.90;;;;;;4937403;29;20202;-63
2024/01/01 00:58:40;;;;;;;2.73;1.90;;;4.50;99.90;;;;;;4937251;29;20558;-62
2024/01/01 01:01:05;;;;;;;2.78;1.20;;;4.40;99.90;;;;;;4937109;29;20505;-63
2024/01/01 01:03:34;;;;;;;3.20;2.70;;;4.50;99.90;;;;;;4937162;29;20645;-62
2024/01/01 01:05:59;;;;;;;6.28;4.63;;;4.40;99.90;;;;;;4937248;29;20229;-62
2024/01/01 01:08:25;;;;;;;1.43;1.33;;;4.50;99.90;;;;;;4937278;29;20174;-62
2024/01/01 01:10:51;;;;;;;2.10;1.60;;;4.40;99.90;;;;;;4937279;29;20201;-63
2024/01/01 01:13:16;;;;;;;6.57;4.70;;;4.30;99.90;;;;;;4937173;29;20198;-62
2024/01/01 01:15:42;;;;;;;3.13;1.83;;;4.30;99.90;;;;;;4937129;29;20187;-62
2024/01/01 01:18:08;;;;;;;2.27;2.07;;;4.20;99.90;;;;;;4937122;29;20411;-62
2024/01/01 01:20:33;;;;;;;2.10;2.00;;;4.20;99.90;;;;;;4936753;29;20190;-63
2024/01/01 01:22:59;;;;;;;2.03;1.93;;;4.40;99.90;;;;;;4937063;29;20179;-62
2024/01/01 01:25:25;;;;;;;3.13;1.77;;;4.40;99.90;;;;;;4936935;29;20196;-62
2024/01/01 01:27:51;;;;;;;2.50;1.50;;;4.40;99.90;;;;;;4936824;29;20541;-62
2024/01/01 01:30:16;;;;;;;2.27;2.17;;;4.20;99.90;;;;;;4936677;29;20559;-62
2024/01/01 01:32:42;;;;;;;8.77;5.23;;;4.10;99.90;;;;;;4936668;29;20170;-62
2024/01/01 01:35:08;;;;;;;1.23;1.23;;;4.00;99.90;;;;;;4936785;29;20301;-63
2024/01/01 01:37:34;;;;;;;2.60;1.80;;;4.00;99.90;;;;;;4936778;29;20426;-62
2024/01/01 01:39:59;;;;;;;4.13;2.20;;;4.00;99.90;;;;;;4936677;29;20418;-63
2024/01/01 01:42:25;;;;;;;5.83;5.33;;;3.90;99.90;;;;;;4936563;29;20370;-63
2024/01/01 01:44:51;;;;;;;4.47;2.20;;;3.80;99.90;;;;;;4937083;29;20538;-63
2024/01/01 01:47:16;;;;;;;2.77;1.47;;;3.70;99.90;;;;;;4936357;29;20301;-63
2024/01/01 01:49:42;;;;;;;1.23;1.23;;;3.60;99.90;;;;;;4936399;29;20171;-63
2024/01/01 01:52:09;;;;;;;2.50;2.37;;;3.60;99.90;;;;;;4936530;29;20418;-63
2024/01/01 01:54:36;;;;;;;1.95;1.42;;;3.60;99.90;;;;;;4936642;29;20162;-63
2024/01/01 01:57:06;;;;;;;1.52;1.10;;;3.70;99.90;;;;;;4936310;29;20213;-62
2024/01/01 01:59:32;;;;;;;4.40;0.77;;;3.70;99.90;;;;;;4936417;29;20188;-63
2024/01/01 02:01:58;;;;;;;1.07;0.97;;;3.70;99.90;;;;;;4936289;29;20186;-62
2024/01/01 02:04:24;;;;;;;1.90;1.37;;;3.40;99.90;;;;;;4935826;29;20929;-63
2024/01/01 02:06:50;;;;;;;1.45;1.35;;;3.50;99.90;;;;;;4936166;29;20473;-63
2024/01/01 02:09:16;;;;;;;2.97;2.30;;;3.40;99.90;;;;;;4936202;29;20182;-63
2024/01/01 02:11:42;;;;;;;3.63;2.43;;;3.50;99.90;;;;;;4935984;29;20209;-62
2024/01/01 02:14:13;;;;;;;1.98;1.10;;;3.60;99.90;;;;;;4936121;29;20410;-63
2024/01/01 02:16:39;;;;;;;0.40;0.40;;;3.50;99.90;;;;;;4936429;29;20206;-63
2024/01/01 02:19:20;;;;;;;0.55;0.55;;;3.50;99.90;;;;;;4936087;29;20174;-63
2024/01/01 02:21:50;;;;;;;0.85;0.50;;;3.50;99.90;;;;;;4935791;29;20190;-62
2024/01/01 02:24:16;;;;;;;0.68;0.68;;;3.50;99.90;;;;;;4935958;29;20182;-63
2024/01/01 02:26:43;;;;;;;1.43;1.33;;;3.50;99.90;;;;;;4935588;29;20213;-63
2024/01/01 02:29:09;;;;;;;1.58;0.70;;;3.50;99.90;;;;;;4935731;29;20178;-63
2024/01/01 02:31:35;;;;;;;1.00;1.00;;;3.60;99.90;;;;;;4935480;29;20190;-63
2024/01/01 02:34:01;;;;;;;0.80;0.80;;;3.60;99.90;;;;;;4935713;29;20186;-62
2024/01/01 02:36:27;;;;;;;0.40;0.40;;;3.60;99.90;;;;;;4935671;29;20225;-63
2024/01/01 02:38:53;;;;;;;1.15;1.02;;;3.70;99.90;;;;;;4935654;29;20446;-62
2024/01/01 02:41:18;;;;;;;3.60;3.40;;;4.00;99.90;;;;;;4935163;29;20178;-63
2024/01/01 02:43:44;;;;;;;2.97;0.90;;;4.10;99.90;;;;;;4935632;29;20180;-63
2024/01/01 02:46:09;;;;;;;0.30;0.30;;;4.10;99.90;;;;;;4935356;29;20594;-62
2024/01/01 02:48:35;;;;;;;0.40;0.40;;;4.20;99.90;;;;;;4935467;29;20179;-62
2024/01/01 02:51:02;;;;;;;1.00;1.00;;;4.20;99.90;;;;;;4935436;29;20201;-62
2024/01/01 02:53:27;;;;;;;3.75;2.30;;;4.10;99.90;;;;;;4935379;29;20233;-63
2024/01/01 02:55:53;;;;;;;0.40;0.40;;;4.10;99.90;;;;;;4935170;29;20194;-62
2024/01/01 02:58:18;;;;;;;0.77;0.77;;;4.20;99.90;;;;;;4935235;29;20245;-62
2024/01/01 03:00:47;;;;;;;0.50;0.50;;;4.30;99.90;;;;;;4935011;29;20205;-62
2024/01/01 03:03:14;;;;;;;0.82;0.82;;;4.10;99.90;;;;;;4935114;29;20277;-62
2024/01/01 03:05:40;;;;;;;0.40;0.40;;;4.20;99.90;;;;;;4934983;29;20202;-62
2024/01/01 03:08:07;;;;;;;0.95;0.88;;;4.20;99.90;;;;;;4935084;29;20202;-62
2024/01/01 03:10:32;;;;;;;0.45;0.45;;;4.30;99.90;;;;;;4935217;29;20558;-62
2024/01/01 03:12:58;;;;;;;1.20;0.80;;;4.30;99.90;;;;;;4935099;29;20181;-63
2024/01/01 03:15:24;;;;;;;0.40;0.40;;;4.20;99.90;;;;;;4935035;29;20167;-63
2024/01/01 03:17:49;;;;;;;0.40;0.40;;;4.20;99.90;;;;;;4934357;29;20679;-63
2024/01/01 03:20:18;;;;;;;1.47;1.33;;;4.20;99.90;;;;;;4933553;29;20216;-62
2024/01/01 03:22:45;;;;;;;0.40;0.40;;;4.10;99.90;;;;;;4934820;29;20218;-63
2024/01/01 03:25:11;;;;;;;0.40;0.40;;;4.10;99.90;;;;;;4934874;29;20190;-62
2024/01/01 03:27:37;;;;;;;0.80;0.80;;;4.20;99.90;;;;;;4934627;29;20226;-62
2024/01/01 03:30:08;;;;;;;0.35;0.35;;;4.30;99.90;;;;;;4934662;29;20194;-62
2024/01/01 03:32:37;;;;;;;1.02;0.93;;;4.30;99.90;;;;;;4934709;29;20178;-62
2024/01/01 03:35:03;;;;;;;0.50;0.50;;;4.30;99.90;;;;;;4934513;29;20186;-62
2024/01/01 03:37:29;;;;;;;0.97;0.83;;;4.40;99.90;;;;;;4934779;29;20205;-62
2024/01/01 03:39:54;;;;;;;0.40;0.40;;;4.40;99.90;;;;;;4934587;29;20418;-62
2024/01/01 03:42:20;;;;;;;2.83;2.07;;;4.40;99.90;;;;;;4934372;29;20182;-62
2024/01/01 03:44:46;;;;;;;0.40;0.40;;;4.50;99.90;;;;;;4934633;29;20182;-62
2024/01/01 03:47:11;;;;;;;0.60;0.60;;;4.40;99.90;;;;;;4934421;29;20205;-63
2024/01/01 03:49:37;;;;;;;0.47;0.47;;;4.40;99.90;;;;;;4934388;29;20551;-63
2024/01/01 03:52:02;;;;;;;0.30;0.30;;;4.40;99.90;;;;;;4934355;29;20178;-62
2024/01/01 03:54:28;;;;;;;0.40;0.40;;;4.40;99.90;;;;;;4934717;29;20253;-62
2024/01/01 03:56:55;;;;;;;0.30;0.30;;;4.40;99.90;;;;;;4934293;29;20640;-62
2024/01/01 03:59:21;;;;;;;0.30;0.30;;;4.40;99.90;;;;;;4934490;29;20190;-62
2024/01/01 04:01:48;;;;;;;2.10;1.37;;;4.40;99.90;;;;;;4934171;29;20253;-63
2024/01/01 04:04:14;;;;;;;3.05;0.77;;;4.50;99.90;;;;;;4934230;29;20174;-63
2024/01/01 04:06:40;;;;;;;1.90;0.90;;;4.40;99.90;;;;;;4934195;29;20268;-62
2024/01/01 04:09:05;;;;;;;0.30;0.30;;;4.30;99.90;;;;;;4934253;29;20644;-63
2024/01/01 04:11:31;;;;;;;0.37;0.37;;;4.30;99.90;;;;;;4934027;29;20185;-63
2024/01/01 04:13:57;;;;;;;0.80;0.57;;;4.30;99.90;;;;;;4934350;29;20183;-62
2024/01/01 04:16:22;;;;;;;0.30;0.30;;;4.50;99.90;;;;;;4934181;29;20606;-62
2024/01/01 04:18:48;;;;;;;0.30;0.30;;;4.50;99.90;;;;;;4934132;29;20170;-63
2024/01/01 04:21:13;;;;;;;0.40;0.40;;;4.50;99.90;;;;;;4933993;29;20186;-63
2024/01/01 04:23:39;;;;;;;0.50;0.40;;;4.50;99.90;;;;;;4934243;29;20598;-63
2024/01/01 04:26:05;;;;;;;0.30;0.30;;;4.50;99.90;;;;;;4934254;29;20201;-62
2024/01/01 04:28:30;;;;;;;0.63;0.63;;;4.50;99.90;;;;;;4936464;29;20180;-63
2024/01/01 04:30:56;;;;;;;14.03;1.43;;;4.60;99.90;;;;;;4937701;29;20192;-63
2024/01/01 04:33:21;;;;;;;0.30;0.30;;;4.70;99.90;;;;;;4937972;29;20198;-62
2024/01/01 04:35:47;;;;;;;0.50;0.50;;;4.50;99.90;;;;;;4938083;29;20194;-63
2024/01/01 04:38:13;;;;;;;0.40;0.40;;;4.40;99.90;;;;;;4938231;29;20178;-63
2024/01/01 04:40:39;;;;;;;0.40;0.40;;;4.40;99.90;;;;;;4937505;29;20185;-63
2024/01/01 04:43:05;;;;;;;0.50;0.50;;;4.50;99.90;;;;;;4937751;29;20534;-63
2024/01/01 04:45:35;;;;;;;1.13;1.07;;;4.50;99.90;;;;;;4937673;29;20174;-63
2024/01/01 04:48:01;;;;;;;0.55;0.55;;;4.40;99.90;;;;;;4937455;29;20344;-63
2024/01/01 04:50:27;;;;;;;0.70;0.70;;;4.40;99.90;;;;;;4937288;29;20210;-63
2024/01/01 04:52:52;;;;;;;1.80;1.70;;;4.50;99.90;;;;;;4937592;29;20176;-62
2024/01/01 04:55:18;;;;;;;0.53;0.53;;;4.40;99.90;;;;;;4937731;29;20285;-63
2024/01/01 04:57:44;;;;;;;0.30;0.30;;;4.50;99.90;;;;;;4937429;29;20186;-63
2024/01/01 05:00:10;;;;;;;0.50;0.50;;;4.50;99.90;;;;;;4937345;29;20182;-63
2024/01/01 05:02:35;;;;;;;0.40;0.40;;;4.40;99.90;;;;;;4937233;29;20537;-63
2024/01/01 05:05:03;;;;;;;0.33;0.33;;;4.50;99.90;;;;;;4937604;29;20193;-63
2024/01/01 05:07:28;;;;;;;0.40;0.40;;;4.50;99.90;;;;;;4937119;29;20233;-63
2024/01/01 05:09:54;;;;;;;5.83;0.70;;;4.50;99.90;;;;;;4937131;29;20269;-63
2024/01/01 05:12:20;;;;;;;0.67;0.63;;;4.40;99.90;;;;;;4937182;29;20171;-62
2024/01/01 05:14:45;;;;;;;0.30;0.30;;;4.50;99.90;;;;;;4937274;29;20573;-62
2024/01/01 05:17:11;;;;;;;0.33;0.33;;;4.40;99.90;;;;;;4937488;29;20190;-63
2024/01/01 05:19:36;;;;;;;0.40;0.40;;;4.30;99.90;;;;;;4937111;29;20229;-62
2024/01/01 05:22:04;;;;;;;0.63;0.50;;;4.30;99.90;;;;;;4936783;29;20214;-63
2024/01/01 05:24:29;;;;;;;1.00;1.00;;;4.40;99.90;;;;;;4937006;29;20308;-62
2024/01/01 05:26:55;;;;;;;0.40;0.40;;;4.40;99.90;;;;;;4937248;29;20218;-63
2024/01/01 05:29:21;;;;;;;0.40;0.40;;;4.50;99.90;;;;;;4937390;29;20181;-63
2024/01/01 05:31:47;;;;;;;0.40;0.40;;;4.60;99.90;;;;;;4936526;29;20178;-63
2024/01/01 05:34:12;;;;;;;8.90;1.33;;;4.50;99.90;;;;;;4937047;29;20406;-63
2024/01/01 05:36:38;;;;;;;0.90;0.83;;;4.40;99.90;;;;;;4936885;29;20287;-63
2024/01/01 05:39:03;;;;;;;0.37;0.37;;;4.40;99.90;;;;;;4935823;29;20178;-63
2024/01/01 05:41:29;;;;;;;0.40;0.40;;;4.40;99.90;;;;;;4936386;29;20190;-63
2024/01/01 05:43:55;;;;;;;1.40;0.70;;;4.40;99.90;;;;;;4936702;29;20613;-63
2024/01/01 05:46:20;;;;;;;4.73;1.33;;;4.50;99.90;;;;;;4936484;29;20256;-62
2024/01/01 05:48:46;;;;;;;0.40;0.40;;;4.60;99.90;;;;;;4936564;29;20180;-62
2024/01/01 05:51:11;;;;;;;0.40;0.40;;;4.70;99.90;;;;;;4936204;29;20174;-62
2024/01/01 05:53:37;;;;;;;0.57;0.40;;;4.70;99.90;;;;;;4936634;29;20183;-62
2024/01/01 05:56:04;;;;;;;0.40;0.40;;;4.70;99.90;;;;;;4936475;29;20285;-63
2024/01/01 05:58:29;;;;;;;0.40;0.40;;;4.70;99.90;;;;;;4936348;29;20680;-62
2024/01/01 06:00:55;;;;;;;0.40;0.40;;;4.70;99.90;;;;;;4936022;29;20189;-62
2024/01/01 06:03:20;;;;;;;0.77;0.77;;;4.60;99.90;;;;;;4936295;29;20189;-62
2024/01/01 06:05:46;;;;;;;7.67;2.13;;;4.50;99.90;;;;;;4936111;29;20688;-63
2024/01/01 06:08:12;;;;;;;0.40;0.40;;;4.50;99.90;;;;;;4936167;29;20206;-62
2024/01/01 06:10:37;;;;;;;0.70;0.70;;;4.40;99.90;;;;;;4935950;29;20679;-63
2024/01/01 06:13:03;;;;;;;0.40;0.40;;;4.50;99.90;;;;;;4936131;29;20913;-63
2024/01/01 06:15:29;;;;;;;0.40;0.40;;;4.60;99.90;;;;;;4935887;29;20225;-63
2024/01/01 06:17:54;;;;;;;0.30;0.30;;;4.60;99.90;;;;;;4936065;29;20213;-63
2024/01/01 06:20:20;;;;;;;0.37;0.37;;;4.60;99.90;;;;;;4935628;29;20230;-64
2024/01/01 06:22:47;;;;;;;0.40;0.40;;;4.60;99.90;;;;;;4935914;29;20179;-63
2024/01/01 06:25:13;;;;;;;0.30;0.30;;;4.70;99.90;;;;;;4935962;29;20269;-62
2024/01/01 06:27:38;;;;;;;0.33;0.33;;;4.70;99.90;;;;;;4935846;29;20622;-63
2024/01/01 06:30:07;;;;;;;1.23;1.13;;;4.60;99.90;;;;;;4936061;29;20410;-62
2024/01/01 06:32:33;;;;;;;0.50;0.50;;;4.40;99.90;;;;;;4935822;29;20178;-63
2024/01/01 06:34:58;;;;;;;0.40;0.40;;;4.50;99.90;;;;;;4935666;29;20204;-63
2024/01/01 06:37:24;;;;;;;0.40;0.40;;;4.40;99.90;;;;;;4935644;29;20685;-63
2024/01/01 06:39:50;;;;;;;1.13;0.67;;;4.30;99.90;;;;;;4935528;29;20185;-63
2024/01/01 06:42:17;;;;;;;0.40;0.40;;;4.30;99.90;;;;;;4935436;29;20178;-63
2024/01/01 06:44:43;;;;;;;0.30;0.30;;;4.30;99.90;;;;;;4935342;29;20384;-63
2024/01/01 06:47:08;;;;;;;0.47;0.47;;;4.30;99.90;;;;;;4935550;29;20221;-63
2024/01/01 06:49:34;;;;;;;0.40;0.40;;;4.20;99.90;;;;;;4935302;29;20174;-62
2024/01/01 06:52:00;;;;;;;11.93;1.07;;;4.20;99.90;;;;;;4935063;29;20166;-62
2024/01/01 06:54:25;;;;;;;1.80;1.13;;;4.30;99.90;;;;;;4935483;29;20499;-62
2024/01/01 06:56:51;;;;;;;0.30;0.30;;;4.40;99.90;;;;;;4935263;29;20210;-63
2024/01/01 06:59:17;;;;;;;0.60;0.40;;;4.30;99.90;;;;;;4935250;29;20179;-63
2024/01/01 07:01:43;;;;;;;0.30;0.30;;;4.10;99.90;;;;;;4935015;29;20178;-63
2024/01/01 07:04:10;;;;;;;0.30;0.30;;;4.00;99.90;;;;;;4935196;29;20182;-62
2024/01/01 07:06:36;;;;;;;0.30;0.30;;;3.90;99.90;;;;;;4935066;29;20210;-62
2024/01/01 07:09:02;;;;;;;0.40;0.40;;;3.90;99.90;;;;;;4935168;29;20198;-63
2024/01/01 07:11:28;;;;;;;2.78;2.58;;;3.90;99.90;;;;;;4934872;29;20586;-62
2024/01/01 07:13:54;;;;;;;0.43;0.43;;;4.10;99.90;;;;;;4935133;29;20174;-62
2024/01/01 07:16:20;;;;;;;0.40;0.40;;;4.30;99.90;;;;;;4935035;29;20221;-63
2024/01/01 07:18:46;;;;;;;1.00;0.63;;;4.30;99.90;;;;;;4934912;29;20648;-62
2024/01/01 07:21:11;;;;;;;0.30;0.30;;;4.40;99.90;;;;;;4934692;29;20775;-63
2024/01/01 07:23:37;;;;;;;1.17;0.63;;;4.40;99.90;;;;;;4935000;29;20205;-62
2024/01/01 07:26:04;;;;;;;0.30;0.30;;;4.40;99.90;;;;;;4934898;29;20234;-63
2024/01/01 07:28:29;;;;;;;0.30;0.30;;;4.30;99.90;;;;;;4934730;29;20210;-63
2024/01/01 07:30:57;;;;;;;0.57;0.57;;;4.30;99.90;;;;;;4934590;29;20185;-62
2024/01/01 07:33:22;;;;;;;0.40;0.40;;;4.10;99.90;;;;;;4934919;29;20229;-63
2024/01/01 07:35:48;;;;;;;0.30;0.30;;;4.10;99.90;;;;;;4934805;29;20202;-62
2024/01/01 07:38:14;;;;;;;0.43;0.43;;;4.00;99.90;;;;;;4934759;29;20595;-63
2024/01/01 07:40:39;;;;;;;0.50;0.50;;;4.00;99.90;;;;;;4934431;29;20178;-63
2024/01/01 07:43:05;;;;;;;0.40;0.40;;;4.10;99.90;;;;;;4934567;29;20221;-62
2024/01/01 07:45:30;;;;;;;0.40;0.40;;;3.90;99.90;;;;;;4934579;29;20294;-63
2024/01/01 07:47:56;;;;;;;0.30;0.30;;;3.90;99.90;;;;;;4934472;29;20213;-62
2024/01/01 07:50:22;;;;;;;0.30;0.30;;;3.90;99.90;;;;;;4934217;29;20213;-63
2024/01/01 07:52:47;;;;;;;0.60;0.60;;;3.80;99.90;;;;;;4934592;29;20701;-63
2024/01/01 07:55:13;;;;;;;0.30;0.30;;;3.70;99.90;;;;;;4934559;29;20557;-63
2024/01/01 07:57:39;;;;;;;0.40;0.40;;;3.80;99.90;;;;;;4934263;29;20213;-63
2024/01/01 08:00:06;;;;;;;0.30;0.30;;;3.70;99.90;;;;;;4934222;29;20189;-63
2024/01/01 08:02:32;;;;;;;0.32;0.32;;;3.90;99.90;;;;;;4933898;29;20715;-62
2024/01/01 08:04:59;;;;;;;0.30;0.30;;;3.90;99.90;;;;;;4934383;29;20186;-63
2024/01/01 08:07:24;;;;;;;1.45;0.73;;;4.00;99.90;;;;;;4934273;29;20194;-63
2024/01/01 08:09:50;;;;;;;0.30;0.30;;;4.10;99.90;;;;;;4934219;29;20679;-63
2024/01/01 08:12:16;;;;;;;5.07;2.10;;;4.20;99.90;;;;;;4934037;29;20174;-62
2024/01/01 08:14:41;;;;;;;0.30;0.30;;;4.30;99.90;;;;;;4934548;29;20185;-63
2024/01/01 08:17:08;;;;;;;0.30;0.30;;;4.20;99.90;;;;;;4934185;29;20201;-62
2024/01/01 08:19:34;;;;;;;0.30;0.30;;;4.30;99.90;;;;;;4934206;29;20182;-63
2024/01/01 08:22:00;;;;;;;0.30;0.30;;;4.40;99.90;;;;;;4933914;29;20186;-62
2024/01/01 08:24:26;;;;;;;0.40;0.40;;;4.40;99.90;;;;;;4934229;29;20190;-63
2024/01/01 08:26:52;;;;;;;0.83;0.83;;;4.40;99.90;;;;;;4934006;29;20644;-63
2024/01/01 08:29:17;;;;;;;0.37;0.37;;;4.50;99.90;;;;;;4934170;29;20547;-63
2024/01/01 08:31:43;;;;;;;0.37;0.37;;;4.60;99.90;;;;;;4933819;29;20550;-63
2024/01/01 08:34:09;;;;;;;1.03;1.03;;;4.50;99.90;;;;;;4934475;29;20420;-63
2024/01/01 08:36:35;;;;;;;0.70;0.70;;;4.60;99.90;;;;;;4934136;29;20644;-62
2024/01/01 08:39:00;;;;;;;0.30;0.30;;;4.70;99.90;;;;;;4934130;29;20193;-63
2024/01/01 08:41:26;;;;;;;0.30;0.30;;;4.70;99.90;;;;;;4933762;29;20182;-63
2024/01/01 08:43:56;;;;;;;0.40;0.40;;;4.70;99.90;;;;;;4934125;29;20529;-63
2024/01/01 08:46:26;;;;;;;0.60;0.60;;;4.80;99.90;;;;;;4934062;29;20199;-63
2024/01/01 08:48:52;;;;;;;7.82;2.58;;;4.80;99.90;;;;;;4933972;29;20557;-62
2024/01/01 08:51:18;;;;;;;0.30;0.30;;;4.80;99.90;;;;;;4933718;29;20185;-62
2024/01/01 08:53:44;;;;;;;0.40;0.40;;;4.90;99.90;;;;;;4933944;29;20407;-62
2024/01/01 08:56:10;;;;;;;0.53;0.53;;;4.90;99.90;;;;;;4933842;29;20669;-62
2024/01/01 08:58:35;;;;;;;0.40;0.40;;;4.90;99.90;;;;;;4933901;29;20247;-63
2024/01/01 09:01:01;;;;;;;9.63;0.93;;;5.00;99.90;;;;;;4933634;29;20188;-62
2024/01/01 09:03:29;;;;;;;0.40;0.40;;;5.10;99.90;;;;;;4933876;29;20171;-63
2024/01/01 09:05:57;;;;;;;1.20;0.70;;;5.10;99.90;;;;;;4933825;29;20194;-63
2024/01/01 09:08:23;;;;;;;0.40;0.40;;;5.00;99.90;;;;;;4933690;29;20214;-63
2024/01/01 09:10:49;;;;;;;0.40;0.40;;;5.00;99.90;;;;;;4933566;29;20657;-63
2024/01/01 09:13:15;;;;;;;0.30;0.30;;;5.10;99.90;;;;;;4933863;29;20189;-62
2024/01/01 09:15:41;;;;;;;0.63;0.63;;;5.00;99.90;;;;;;4935994;29;20453;-62
2024/01/01 09:18:07;;;;;;;0.30;0.30;;;5.10;99.90;;;;;;4937181;29;20212;-62
2024/01/01 09:20:34;;;;;;;0.80;0.80;;;5.20;99.90;;;;;;4936839;29;20188;-63
2024/01/01 09:22:59;;;;;;;0.65;0.65;;;5.10;99.90;;;;;;4937044;29;20237;-63
2024/01/01 09:25:25;;;;;;;0.30;0.30;;;5.00;99.90;;;;;;4937014;29;20181;-62
2024/01/01 09:27:52;;;;;;;0.60;0.60;;;5.00;99.90;;;;;;4937043;29;20201;-63
2024/01/01 09:30:18;;;;;;;0.40;0.40;;;5.00;99.90;;;;;;4936818;29;20218;-63
2024/01/01 09:32:43;;;;;;;0.60;0.60;;;4.90;99.90;;;;;;4936719;29;20581;-63
2024/01/01 09:35:09;;;;;;;0.93;0.93;;;5.00;99.90;;;;;;4936893;29;20170;-63
2024/01/01 09:37:37;;;;;;;0.60;0.60;;;4.90;99.90;;;;;;4936748;29;20677;-63
2024/01/01 09:40:03;;;;;;;0.40;0.40;;;4.90;99.90;;;;;;4936801;29;20559;-63
2024/01/01 09:42:29;;;;;;;0.88;0.73;;;4.80;99.90;;;;;;4936755;29;20182;-62
2024/01/01 09:44:55;;;;;;;0.33;0.33;;;4.60;99.90;;;;;;4936778;29;20174;-62
2024/01/01 09:47:20;;;;;;;0.40;0.40;;;4.60;99.90;;;;;;4936531;29;20223;-63
2024/01/01 09:49:46;;;;;;;0.50;0.50;;;4.60;99.90;;;;;;4936511;29;20221;-63
2024/01/01 09:52:14;;;;;;;1.07;1.07;;;4.60;99.90;;;;;;4936405;29;20171;-62
2024/01/01 09:54:42;;;;;;;1.00;0.90;;;4.80;99.90;;;;;;4936793;29;20170;-62
2024/01/01 09:57:08;;;;;;;0.38;0.38;;;4.90;99.90;;;;;;4936327;29;20214;-63
2024/01/01 09:59:35;;;;;;;2.30;2.20;;;4.90;99.90;;;;;;4936487;29;20177;-62
2024/01/01 10:02:05;;;;;;;0.40;0.40;;;4.80;99.90;;;;;;4936134;29;20184;-62
2024/01/01 10:04:30;;;;;;;0.60;0.60;;;4.90;99.90;;;;;;4936306;29;20185;-63
2024/01/01 10:06:59;;;;;;;1.70;1.53;;;5.00;99.90;;;;;;4936151;29;20711;-63
2024/01/01 10:09:24;;;;;;;1.50;0.77;;;5.10;99.90;;;;;;4936290;29;20172;-63
2024/01/01 10:11:50;;;;;;;0.60;0.57;;;5.10;99.90;;;;;;4936038;29;20213;-63
2024/01/01 10:14:15;;;;;;;4.80;1.43;;;5.20;99.90;;;;;;4936293;29;20559;-63
2024/01/01 10:16:42;;;;;;;0.60;0.60;;;5.20;99.90;;;;;;4936046;29;20290;-63
2024/01/01 10:19:08;;;;;;;0.38;0.38;;;5.20;99.90;;;;;;4935985;29;20178;-62
2024/01/01 10:21:35;;;;;;;0.40;0.40;;;5.30;99.90;;;;;;4935990;29;20184;-62
2024/01/01 10:24:21;;;;;;;0.40;0.40;;;5.40;99.90;;;;;;4936044;29;20178;-63
2024/01/01 10:26:48;;;;;;;0.50;0.50;;;5.40;99.90;;;;;;4935530;29;20592;-63
2024/01/01 10:29:15;;;;;;;7.15;2.35;;;5.50;99.90;;;;;;4935882;29;20255;-63
2024/01/01 10:31:44;;;;;;;0.40;0.40;;;5.50;99.90;;;;;;4935406;29;20209;-63
2024/01/01 10:34:14;;;;;;;0.30;0.30;;;5.50;99.90;;;;;;4935790;29;20167;-63
2024/01/01 10:36:41;;;;;;;30.10;1.05;;;5.50;99.90;;;;;;4935687;29;20202;-62
2024/01/01 10:39:09;;;;;;;0.50;0.50;;;5.50;99.90;;;;;;4935792;29;20186;-63
2024/01/01 10:41:38;;;;;;;0.40;0.40;;;5.50;99.90;;;;;;4935432;29;20180;-63
2024/01/01 10:44:09;;;;;;;1.15;1.05;;;5.60;99.90;;;;;;4935606;29;20178;-63
2024/01/01 10:46:39;;;;;;;0.40;0.40;;;5.60;99.90;;;;;;4935423;29;20243;-63
2024/01/01 10:49:12;;;;;;;2.55;2.45;;;5.70;99.90;;;;;;4935463;29;20171;-62
2024/01/01 10:51:56;;;;;;;1.42;1.40;;;5.60;99.90;;;;;;4935291;29;20257;-63
2024/01/01 10:54:43;;;;;;;2.35;1.30;;;5.50;99.90;;;;;;4935478;29;20175;-63
2024/01/01 10:57:35;;;;;;;1.80;1.35;;;5.40;99.90;;;;;;4935194;29;20566;-62
2024/01/01 11:00:38;;;;;;;0.93;0.93;;;5.50;99.90;;;;;;4935105;29;20180;-62
2024/01/01 11:03:04;;;;;;;0.40;0.40;;;5.50;99.90;;;;;;4935158;29;20189;-63
2024/01/01 11:05:33;;;;;;;0.45;0.45;;;5.60;99.90;;;;;;4935227;29;20653;-63
2024/01/01 11:08:00;;;;;;;0.60;0.50;;;5.50;99.90;;;;;;4935315;29;20561;-63
2024/01/01 11:10:35;;;;;;;1.00;0.70;;;5.50;99.90;;;;;;4935025;29;20182;-63
2024/01/01 11:13:03;;;;;;;4.45;2.63;;;5.50;99.90;;;;;;4935179;29;20197;-63
2024/01/01 11:15:45;;;;;;;1.88;1.63;;;5.50;99.90;;;;;;4934893;29;20167;-63
2024/01/01 11:18:18;;;;;;;0.80;0.80;;;5.40;99.90;;;;;;4935406;29;20230;-63
2024/01/01 11:21:06;;;;;;;0.68;0.68;;;5.40;99.90;;;;;;4934717;29;20673;-63
2024/01/01 11:23:47;;;;;;;0.50;0.50;;;5.40;99.90;;;;;;4935450;29;20179;-63
2024/01/01 11:26:30;;;;;;;0.35;0.35;;;5.40;99.90;;;;;;4934854;29;20203;-62
2024/01/01 11:28:57;;;;;;;0.60;0.57;;;5.40;99.90;;;;;;4935147;29;20209;-63
2024/01/01 11:31:25;;;;;;;0.50;0.50;;;5.40;99.90;;;;;;4934524;29;20185;-63
2024/01/01 11:34:05;;;;;;;0.40;0.40;;;5.40;99.90;;;;;;4934842;29;20549;-63
2024/01/01 11:36:31;;;;;;;2.15;1.05;;;5.40;99.90;;;;;;4934438;29;20203;-62
2024/01/01 11:38:58;;;;;;;2.25;1.70;;;5.40;99.90;;;;;;4934197;29;20162;-63
2024/01/01 11:41:28;;;;;;;11.15;1.45;;;5.50;99.90;;;;;;4934546;29;20186;-62
2024/01/01 11:43:55;;;;;;;0.77;0.68;;;5.60;99.90;;;;;;4934661;29;20184;-63
2024/01/01 11:46:27;;;;;;;1.08;1.02;;;5.60;99.90;;;;;;4934543;29;20200;-62
2024/01/01 11:49:02;;;;;;;1.95;1.15;;;5.50;99.90;;;;;;4934440;29;20191;-62
2024/01/01 11:51:32;;;;;;;0.52;0.52;;;5.50;99.90;;;;;;4934317;29;20691;-62
2024/01/01 11:54:10;;;;;;;0.57;0.57;;;5.40;99.90;;;;;;4934498;29;20656;-63
2024/01/01 11:56:40;;;;;;;0.98;0.98;;;5.30;99.90;;;;;;4934440;29;20221;-62
2024/01/01 11:59:06;;;;;;;0.57;0.57;;;5.40;99.90;;;;;;4934407;29;20170;-62
2024/01/01 12:01:33;;;;;;;1.60;1.50;;;5.60;99.90;;;;;;4934108;29;20404;-63
2024/01/01 12:04:02;;;;;;;0.50;0.50;;;5.60;99.90;;;;;;4934691;29;20591;-63
2024/01/01 12:06:31;;;;;;;0.95;0.90;;;5.70;99.90;;;;;;4934356;29;20241;-63
2024/01/01 12:09:09;;;;;;;3.42;1.23;;;5.70;99.90;;;;;;4934399;29;20266;-63
2024/01/01 12:11:39;;;;;;;0.40;0.40;;;5.80;99.90;;;;;;4934134;29;20252;-62
2024/01/01 12:14:05;;;;;;;0.40;0.40;;;5.90;99.90;;;;;;4934334;29;20182;-63
2024/01/01 12:16:31;;;;;;;0.60;0.60;;;5.90;99.90;;;;;;4934284;29;20202;-63
2024/01/01 12:18:57;;;;;;;0.50;0.50;;;6.00;99.90;;;;;;4934190;29;20186;-63
2024/01/01 12:21:24;;;;;;;0.30;0.30;;;5.90;99.90;;;;;;4934160;29;20268;-63
2024/01/01 12:23:49;;;;;;;0.40;0.40;;;6.00;99.90;;;;;;4934286;29;20177;-63
2024/01/01 12:26:22;;;;;;;1.80;1.50;;;6.00;99.90;;;;;;4934152;29;20280;-63
2024/01/01 12:29:09;;;;;;;0.40;0.40;;;5.90;99.90;;;;;;4934142;29;20245;-63
2024/01/01 12:31:36;;;;;;;0.35;0.35;;;5.80;99.90;;;;;;4933908;29;20660;-62
2024/01/01 12:34:02;;;;;;;2.00;1.55;;;5.70;99.90;;;;;;4934182;29;20179;-63
2024/01/01 12:36:27;;;;;;;0.90;0.90;;;5.80;99.90;;;;;;4934029;29;20711;-62
2024/01/01 12:38:53;;;;;;;0.30;0.30;;;5.80;99.90;;;;;;4934429;29;20194;-63
2024/01/01 12:41:20;;;;;;;1.50;1.10;;;5.60;99.90;;;;;;4933794;29;20169;-63
2024/01/01 12:43:46;;;;;;;0.60;0.60;;;5.50;99.90;;;;;;4934078;29;20198;-63
2024/01/01 12:46:15;;;;;;;0.70;0.50;;;5.50;99.90;;;;;;4934016;29;20237;-63
2024/01/01 12:48:45;;;;;;;0.40;0.40;;;5.60;99.90;;;;;;4934876;29;20206;-62
2024/01/01 12:51:10;;;;;;;2.35;0.90;;;5.70;99.90;;;;;;4937368;29;20681;-63
2024/01/01 12:53:36;;;;;;;0.37;0.37;;;5.80;99.90;;;;;;4937479;29;20270;-62
2024/01/01 12:56:03;;;;;;;4.83;0.70;;;5.80;99.90;;;;;;4937497;29;20435;-62